createdAt,value
2023-02-16T00:02:40.434Z,14.00
2023-02-16T00:05:33.007Z,24.20
2023-02-16T00:08:21.051Z,14.73
2023-02-16T00:11:44.317Z,15.70
2023-02-16T00:14:34.449Z,12.60
2023-02-16T00:17:22.354Z,13.97
2023-02-16T00:20:16.095Z,17.10
2023-02-16T00:23:06.657Z,12.27
2023-02-16T00:25:54.517Z,12.60
2023-02-16T00:28:42.855Z,13.53
2023-02-16T00:31:32.891Z,13.17
2023-02-16T00:34:30.236Z,14.03
2023-02-16T00:37:18.188Z,18.20
2023-02-16T00:40:08.714Z,13.47
2023-02-16T00:42:57.590Z,12.77
2023-02-16T00:45:46.056Z,14.93
2023-02-16T00:48:35.671Z,14.90
2023-02-16T00:51:26.012Z,12.67
2023-02-16T00:54:14.822Z,15.93
2023-02-16T00:57:04.122Z,13.27
2023-02-16T00:59:59.115Z,14.07
2023-02-16T01:02:49.784Z,14.50
2023-02-16T01:05:37.716Z,13.97
2023-02-16T01:08:44.433Z,14.30
2023-02-16T01:11:32.361Z,12.63
2023-02-16T01:14:23.150Z,14.27
2023-02-16T01:17:11.582Z,13.90
2023-02-16T01:19:59.468Z,13.00
2023-02-16T01:22:47.431Z,16.33
2023-02-16T01:25:36.467Z,13.73
2023-02-16T01:28:26.638Z,17.20
2023-02-16T01:31:18.669Z,14.50
2023-02-16T01:34:06.582Z,13.67
2023-02-16T01:36:54.484Z,13.83
2023-02-16T01:39:42.350Z,21.83
2023-02-16T01:42:37.607Z,13.57
2023-02-16T01:45:33.590Z,12.67
2023-02-16T01:48:27.261Z,13.03
2023-02-16T01:51:19.925Z,14.63
2023-02-16T01:54:14.516Z,16.10
2023-02-16T01:57:06.890Z,12.30
2023-02-16T02:00:12.605Z,14.27
2023-02-16T02:03:19.424Z,14.50
2023-02-16T02:06:09.922Z,12.93
2023-02-16T02:09:01.225Z,12.40
2023-02-16T02:11:55.675Z,13.23
2023-02-16T02:14:45.494Z,12.00
2023-02-16T02:17:34.217Z,15.07
2023-02-16T02:20:48.365Z,20.20
2023-02-16T02:23:47.946Z,19.50
2023-02-16T02:27:00.572Z,17.70
2023-02-16T02:30:06.164Z,12.43
2023-02-16T02:33:13.997Z,12.57
2023-02-16T02:36:16.791Z,12.53
2023-02-16T02:39:20.010Z,12.37
2023-02-16T02:42:14.738Z,14.57
2023-02-16T02:45:08.293Z,12.50
2023-02-16T02:47:56.190Z,14.30
2023-02-16T02:51:09.982Z,13.60
2023-02-16T02:54:22.254Z,12.57
2023-02-16T02:57:34.818Z,13.93
2023-02-16T03:00:45.089Z,15.00
2023-02-16T03:03:37.118Z,11.70
2023-02-16T03:06:28.475Z,12.60
2023-02-16T03:09:20.743Z,12.13
2023-02-16T03:12:29.379Z,13.97
2023-02-16T03:15:18.143Z,13.37
2023-02-16T03:18:28.489Z,11.43
2023-02-16T03:21:35.050Z,13.93
2023-02-16T03:24:43.434Z,11.60
2023-02-16T03:27:54.002Z,12.63
2023-02-16T03:30:43.384Z,14.97
2023-02-16T03:33:32.081Z,15.37
2023-02-16T03:36:19.938Z,10.67
2023-02-16T03:39:08.755Z,12.07
2023-02-16T03:41:57.990Z,17.30
2023-02-16T03:44:47.101Z,11.50
2023-02-16T03:47:36.007Z,11.50
2023-02-16T03:50:27.283Z,12.13
2023-02-16T03:53:17.466Z,11.47
2023-02-16T03:56:06.419Z,13.00
2023-02-16T03:58:54.310Z,12.03
2023-02-16T04:01:43.575Z,11.40
2023-02-16T04:04:31.541Z,12.37
2023-02-16T04:07:19.365Z,12.20
2023-02-16T04:10:10.289Z,12.10
2023-02-16T04:12:57.229Z,12.00
2023-02-16T04:15:45.048Z,12.20
2023-02-16T04:18:34.246Z,15.87
2023-02-16T04:21:22.097Z,15.33
2023-02-16T04:24:10.369Z,12.00
2023-02-16T04:26:58.255Z,12.77
2023-02-16T04:29:46.018Z,13.30
2023-02-16T04:32:34.158Z,15.93
2023-02-16T04:35:23.844Z,12.87
2023-02-16T04:38:14.520Z,12.00
2023-02-16T04:41:03.068Z,12.17
2023-02-16T04:43:51.012Z,11.27
2023-02-16T04:46:38.788Z,13.37
2023-02-16T04:49:26.658Z,14.97
2023-02-16T04:52:15.937Z,12.33
2023-02-16T04:55:07.696Z,12.77
2023-02-16T04:57:58.255Z,11.23
2023-02-16T05:00:46.446Z,12.77
2023-02-16T05:03:34.614Z,11.60
2023-02-16T05:06:22.700Z,12.93
2023-02-16T05:09:14.388Z,11.73
2023-02-16T05:12:19.804Z,13.43
2023-02-16T05:15:10.572Z,15.30
2023-02-16T05:17:58.417Z,13.40
2023-02-16T05:21:04.174Z,11.30
2023-02-16T05:23:52.170Z,17.10
2023-02-16T05:26:41.871Z,11.83
2023-02-16T05:29:29.792Z,11.17
2023-02-16T05:32:18.327Z,13.50
2023-02-16T05:35:06.808Z,13.33
2023-02-16T05:37:54.617Z,13.00
2023-02-16T05:40:42.447Z,11.20
2023-02-16T05:43:31.662Z,14.10
2023-02-16T05:46:22.497Z,12.60
2023-02-16T05:49:10.819Z,14.63
2023-02-16T05:51:58.657Z,13.43
2023-02-16T05:54:46.774Z,12.60
2023-02-16T05:57:35.698Z,14.30
2023-02-16T06:00:25.247Z,14.80
2023-02-16T06:03:15.026Z,15.43
2023-02-16T06:06:04.834Z,12.67
2023-02-16T06:08:52.664Z,12.40
2023-02-16T06:11:43.507Z,12.23
2023-02-16T06:14:31.483Z,12.37
2023-02-16T06:17:20.891Z,12.87
2023-02-16T06:20:09.989Z,12.00
2023-02-16T06:22:57.773Z,13.47
2023-02-16T06:25:49.272Z,13.77
2023-02-16T06:28:37.070Z,12.30
2023-02-16T06:31:25.164Z,11.97
2023-02-16T06:34:14.528Z,21.47
2023-02-16T06:37:02.350Z,12.53
2023-02-16T06:39:50.168Z,12.83
2023-02-16T06:42:40.771Z,17.67
2023-02-16T06:45:28.609Z,14.40
2023-02-16T06:48:16.441Z,17.13
2023-02-16T06:51:06.404Z,13.77
2023-02-16T06:53:54.950Z,19.92
2023-02-16T06:56:43.012Z,15.53
2023-02-16T06:59:30.799Z,15.50
2023-02-16T07:02:20.570Z,14.00
2023-02-16T07:05:08.800Z,12.93
2023-02-16T07:07:58.014Z,14.90
2023-02-16T07:10:50.099Z,16.00
2023-02-16T07:13:38.386Z,16.97
2023-02-16T07:16:27.648Z,14.17
2023-02-16T07:19:15.827Z,14.57
2023-02-16T07:22:05.365Z,16.03
2023-02-16T07:24:57.245Z,12.60
2023-02-16T07:27:45.100Z,13.47
2023-02-16T07:30:33.158Z,15.70
2023-02-16T07:33:21.503Z,13.37
2023-02-16T07:36:10.946Z,13.53
2023-02-16T07:38:58.848Z,15.27
2023-02-16T07:41:47.996Z,15.50
2023-02-16T07:44:35.863Z,13.83
2023-02-16T07:47:23.739Z,14.37
2023-02-16T07:50:12.625Z,14.00
2023-02-16T07:53:02.625Z,14.40
2023-02-16T07:55:50.419Z,13.43
2023-02-16T07:58:39.544Z,17.33
2023-02-16T08:01:28.118Z,16.10
2023-02-16T08:04:16.061Z,15.83
2023-02-16T08:07:04.093Z,14.03
2023-02-16T08:09:52.161Z,15.73
2023-02-16T08:12:39.960Z,15.67
2023-02-16T08:15:29.131Z,14.43
2023-02-16T08:18:16.987Z,14.57
2023-02-16T08:21:13.844Z,15.67
2023-02-16T08:24:04.492Z,17.10
2023-02-16T08:26:53.754Z,22.67
2023-02-16T08:29:42.490Z,17.40
2023-02-16T08:32:31.672Z,13.70
2023-02-16T08:35:20.355Z,13.93
2023-02-16T08:38:09.051Z,15.20
2023-02-16T08:40:56.904Z,18.10
2023-02-16T08:43:44.776Z,14.23
2023-02-16T08:46:34.177Z,14.67
2023-02-16T08:49:24.899Z,16.13
2023-02-16T08:52:13.300Z,16.37
2023-02-16T08:55:01.459Z,15.33
2023-02-16T08:57:49.464Z,15.73
2023-02-16T09:00:38.553Z,16.53
2023-02-16T09:03:26.549Z,17.13
2023-02-16T09:06:17.064Z,14.50
2023-02-16T09:09:06.050Z,16.10
2023-02-16T09:11:54.331Z,16.93
2023-02-16T09:14:42.415Z,13.23
2023-02-16T09:17:31.153Z,14.40
2023-02-16T09:20:20.359Z,13.93
2023-02-16T09:23:12.271Z,14.10
2023-02-16T09:26:02.271Z,13.37
2023-02-16T09:28:53.692Z,13.97
2023-02-16T09:31:42.520Z,14.40
2023-02-16T09:34:30.371Z,14.50
2023-02-16T09:37:18.186Z,14.93
2023-02-16T09:40:08.955Z,15.17
2023-02-16T09:43:06.850Z,14.73
2023-02-16T09:45:58.609Z,14.53
2023-02-16T09:48:49.359Z,13.90
2023-02-16T09:51:40.997Z,13.93
2023-02-16T09:54:36.220Z,14.73
2023-02-16T09:57:38.984Z,14.53
2023-02-16T10:00:39.724Z,16.00
2023-02-16T10:03:41.220Z,13.67
2023-02-16T10:06:36.255Z,14.47
2023-02-16T10:09:25.998Z,13.50
2023-02-16T10:12:20.592Z,14.67
2023-02-16T10:15:16.322Z,13.80
2023-02-16T10:18:09.261Z,14.90
2023-02-16T10:21:01.844Z,13.93
2023-02-16T10:23:53.318Z,15.00
2023-02-16T10:26:49.127Z,15.03
2023-02-16T10:29:37.041Z,14.53
2023-02-16T10:32:35.459Z,15.97
2023-02-16T10:35:32.306Z,16.03
2023-02-16T10:38:29.554Z,15.47
2023-02-16T10:41:26.099Z,15.33
2023-02-16T10:44:20.784Z,16.40
2023-02-16T10:47:32.774Z,15.43
2023-02-16T10:50:25.277Z,15.87
2023-02-16T10:53:18.317Z,15.67
2023-02-16T10:56:28.163Z,16.63
2023-02-16T10:59:20.585Z,15.53
2023-02-16T11:02:20.170Z,16.33
2023-02-16T11:05:32.164Z,16.67
2023-02-16T11:08:20.505Z,16.30
2023-02-16T11:11:11.437Z,16.93
2023-02-16T11:14:03.254Z,16.17
2023-02-16T11:17:08.504Z,15.87
2023-02-16T11:20:03.935Z,15.50
2023-02-16T11:22:53.072Z,16.03
2023-02-16T11:25:41.434Z,16.07
2023-02-16T11:28:32.900Z,16.57
2023-02-16T11:31:26.303Z,16.57
2023-02-16T11:34:25.535Z,16.13
2023-02-16T11:37:19.854Z,16.20
2023-02-16T11:40:24.160Z,15.97
2023-02-16T11:43:20.046Z,16.67
2023-02-16T11:46:14.657Z,15.97
2023-02-16T11:49:29.411Z,16.87
2023-02-16T11:52:27.031Z,15.50
2023-02-16T11:55:26.824Z,15.77
2023-02-16T11:58:17.357Z,15.70
2023-02-16T12:01:19.069Z,16.50
2023-02-16T12:04:15.847Z,15.37
2023-02-16T12:07:15.479Z,15.97
2023-02-16T12:10:10.735Z,15.93
2023-02-16T12:13:04.838Z,16.80
2023-02-16T12:16:00.058Z,18.17
2023-02-16T12:19:05.719Z,17.63
2023-02-16T12:22:01.039Z,16.67
2023-02-16T12:24:59.041Z,17.50
2023-02-16T12:27:51.548Z,16.60
2023-02-16T12:30:55.224Z,16.37
2023-02-16T12:33:51.711Z,16.17
2023-02-16T12:36:52.156Z,18.20
2023-02-16T12:39:49.285Z,16.83
2023-02-16T12:42:51.968Z,16.47
2023-02-16T12:45:44.967Z,16.73
2023-02-16T12:48:41.796Z,16.90
2023-02-16T12:51:36.424Z,17.87
2023-02-16T12:54:29.764Z,18.13
2023-02-16T12:57:22.245Z,17.00
2023-02-16T13:00:19.855Z,16.97
2023-02-16T13:03:23.533Z,15.87
2023-02-16T13:06:24.998Z,16.97
2023-02-16T13:09:24.499Z,16.93
2023-02-16T13:12:26.990Z,16.67
2023-02-16T13:15:20.484Z,17.60
2023-02-16T13:18:18.965Z,16.60
2023-02-16T13:21:11.833Z,17.20
2023-02-16T13:24:09.008Z,16.50
2023-02-16T13:27:06.739Z,16.67
2023-02-16T13:30:37.213Z,17.23
2023-02-16T13:33:44.996Z,20.05
2023-02-16T13:36:46.952Z,19.83
2023-02-16T13:39:48.014Z,18.00
2023-02-16T13:43:01.104Z,22.02
2023-02-16T13:45:53.654Z,18.17
2023-02-16T13:48:48.721Z,16.57
2023-02-16T13:51:46.349Z,17.83
2023-02-16T13:54:37.057Z,18.30
2023-02-16T13:57:58.314Z,18.87
2023-02-16T14:00:50.594Z,18.07
2023-02-16T14:03:40.038Z,17.50
2023-02-16T14:06:34.062Z,17.63
2023-02-16T14:09:50.780Z,18.70
2023-02-16T14:12:40.621Z,17.80
2023-02-16T14:15:28.636Z,18.53
2023-02-16T14:18:22.850Z,18.00
2023-02-16T14:21:27.677Z,18.47
2023-02-16T14:24:34.304Z,18.77
2023-02-16T14:27:46.069Z,19.13
2023-02-16T14:30:43.403Z,18.77
2023-02-16T14:33:42.057Z,19.33
2023-02-16T14:36:31.070Z,19.67
2023-02-16T14:39:24.717Z,18.57
2023-02-16T14:42:27.361Z,18.73
2023-02-16T14:45:53.597Z,20.90
2023-02-16T14:49:23.865Z,19.33
2023-02-16T14:52:38.036Z,18.10
2023-02-16T14:55:58.149Z,19.73
2023-02-16T14:58:56.185Z,19.27
2023-02-16T15:01:47.171Z,20.33
2023-02-16T15:04:38.249Z,20.70
2023-02-16T15:07:30.338Z,20.17
2023-02-16T15:10:26.798Z,19.83
2023-02-16T15:13:22.198Z,20.27
2023-02-16T15:16:15.250Z,21.17
2023-02-16T15:19:11.917Z,21.53
2023-02-16T15:22:10.781Z,21.30
2023-02-16T15:25:00.906Z,23.07
2023-02-16T15:27:54.736Z,21.03
2023-02-16T15:30:49.218Z,20.83
2023-02-16T15:33:38.963Z,21.70
2023-02-16T15:36:35.324Z,21.83
2023-02-16T15:39:38.504Z,20.70
2023-02-16T15:42:34.052Z,20.90
2023-02-16T15:45:30.699Z,20.80
2023-02-16T15:48:29.267Z,22.00
2023-02-16T15:51:22.166Z,20.87
2023-02-16T15:54:21.784Z,21.87
2023-02-16T15:57:19.457Z,21.47
2023-02-16T16:00:19.312Z,20.87
2023-02-16T16:03:16.626Z,21.07
2023-02-16T16:06:07.470Z,22.07
2023-02-16T16:08:55.550Z,21.73
2023-02-16T16:11:43.863Z,22.13
2023-02-16T16:14:35.261Z,21.57
2023-02-16T16:17:28.063Z,21.07
2023-02-16T16:20:28.613Z,20.80
2023-02-16T16:23:28.230Z,22.10
2023-02-16T16:26:20.306Z,23.03
2023-02-16T16:29:29.946Z,22.03
2023-02-16T16:32:21.250Z,21.77
2023-02-16T16:35:22.906Z,20.80
2023-02-16T16:38:24.849Z,21.73
2023-02-16T16:41:27.663Z,23.37
2023-02-16T16:44:33.428Z,21.50
2023-02-16T16:47:26.130Z,21.73
2023-02-16T16:50:33.245Z,22.90
2023-02-16T16:53:55.633Z,22.97
2023-02-16T16:56:43.605Z,22.30
2023-02-16T16:59:31.396Z,22.83
2023-02-16T17:02:21.961Z,23.37
2023-02-16T17:05:09.906Z,24.63
2023-02-16T17:07:57.745Z,24.10
2023-02-16T17:10:47.161Z,23.23
2023-02-16T17:13:35.151Z,22.63
2023-02-16T17:16:27.173Z,22.83
2023-02-16T17:19:16.441Z,22.93
2023-02-16T17:22:16.214Z,24.50
2023-02-16T17:25:04.640Z,23.30
2023-02-16T17:27:57.438Z,23.47
2023-02-16T17:30:45.581Z,22.13
2023-02-16T17:33:33.451Z,23.23
2023-02-16T17:36:23.512Z,24.43
2023-02-16T17:39:11.422Z,22.73
2023-02-16T17:42:00.154Z,22.70
2023-02-16T17:44:50.620Z,23.97
2023-02-16T17:47:38.732Z,23.23
2023-02-16T17:50:26.599Z,24.97
2023-02-16T17:53:15.672Z,24.07
2023-02-16T17:56:03.931Z,23.63
2023-02-16T17:58:52.539Z,23.53
2023-02-16T18:01:41.925Z,23.87
2023-02-16T18:04:29.804Z,24.67
2023-02-16T18:07:19.109Z,25.43
2023-02-16T18:10:08.359Z,23.93
2023-02-16T18:12:56.178Z,25.60
2023-02-16T18:15:47.387Z,24.70
2023-02-16T18:18:39.066Z,25.07
2023-02-16T18:21:26.952Z,24.47
2023-02-16T18:24:14.837Z,24.57
2023-02-16T18:27:02.719Z,25.23
2023-02-16T18:29:51.629Z,25.53
2023-02-16T18:32:41.747Z,23.93
2023-02-16T18:35:31.896Z,24.90
2023-02-16T18:38:21.860Z,24.90
2023-02-16T18:41:09.873Z,24.13
2023-02-16T18:43:57.804Z,24.43
2023-02-16T18:46:45.656Z,24.50
2023-02-16T18:49:33.655Z,23.70
2023-02-16T18:52:23.016Z,25.60
2023-02-16T18:55:11.823Z,24.40
2023-02-16T18:57:59.732Z,24.87
2023-02-16T19:00:48.612Z,32.23
2023-02-16T19:03:36.505Z,25.10
2023-02-16T19:06:24.485Z,24.33
2023-02-16T19:09:13.601Z,25.67
2023-02-16T19:12:01.489Z,23.53
2023-02-16T19:14:49.409Z,24.70
2023-02-16T19:17:38.541Z,23.37
2023-02-16T19:20:29.377Z,23.80
2023-02-16T19:23:17.523Z,25.23
2023-02-16T19:26:08.494Z,24.53
2023-02-16T19:28:56.452Z,24.07
2023-02-16T19:31:44.355Z,23.40
2023-02-16T19:34:33.436Z,22.70
2023-02-16T19:37:21.270Z,24.93
2023-02-16T19:40:11.167Z,24.33
2023-02-16T19:43:00.271Z,25.00
2023-02-16T19:45:48.195Z,23.30
2023-02-16T19:48:36.339Z,24.47
2023-02-16T19:51:24.511Z,23.80
2023-02-16T19:54:12.327Z,23.93
2023-02-16T19:57:00.181Z,25.00
2023-02-16T19:59:49.618Z,24.97
2023-02-16T20:02:37.487Z,24.77
2023-02-16T20:05:25.371Z,24.27
2023-02-16T20:08:13.219Z,23.83
2023-02-16T20:11:00.995Z,24.43
2023-02-16T20:13:49.224Z,24.87
2023-02-16T20:16:38.396Z,24.57
2023-02-16T20:19:26.240Z,24.37
2023-02-16T20:22:14.409Z,24.10
2023-02-16T20:25:02.450Z,24.23
2023-02-16T20:27:50.408Z,25.57
2023-02-16T20:30:38.211Z,24.73
2023-02-16T20:33:27.476Z,23.80
2023-02-16T20:36:15.602Z,24.10
2023-02-16T20:39:04.065Z,23.77
2023-02-16T20:41:52.509Z,23.33
2023-02-16T20:44:40.431Z,24.40
2023-02-16T20:47:28.348Z,24.33
2023-02-16T20:50:17.578Z,25.30
2023-02-16T20:53:05.797Z,24.27
2023-02-16T20:56:02.597Z,25.13
2023-02-16T20:58:52.609Z,23.57
2023-02-16T21:01:43.831Z,24.00
2023-02-16T21:04:32.123Z,25.03
2023-02-16T21:07:21.444Z,25.47
2023-02-16T21:10:16.728Z,23.77
2023-02-16T21:13:04.637Z,24.10
2023-02-16T21:15:53.019Z,24.40
2023-02-16T21:18:41.144Z,23.63
2023-02-16T21:21:29.030Z,24.07
2023-02-16T21:24:18.239Z,23.80
2023-02-16T21:27:06.133Z,24.33
2023-02-16T21:29:54.006Z,23.03
2023-02-16T21:32:41.918Z,23.10
2023-02-16T21:35:29.799Z,23.07
2023-02-16T21:38:17.795Z,24.60
2023-02-16T21:41:29.078Z,22.83
2023-02-16T21:44:18.192Z,22.33
2023-02-16T21:47:23.725Z,22.73
2023-02-16T21:50:11.648Z,22.10
2023-02-16T21:52:59.819Z,22.53
2023-02-16T21:56:05.605Z,21.63
2023-02-16T21:58:55.069Z,21.77
2023-02-16T22:01:44.871Z,21.13
2023-02-16T22:04:32.711Z,20.93
2023-02-16T22:07:20.601Z,20.77
2023-02-16T22:10:10.121Z,21.03
2023-02-16T22:12:58.629Z,21.00
2023-02-16T22:15:48.801Z,20.20
2023-02-16T22:18:36.772Z,20.70
2023-02-16T22:21:26.725Z,21.33
2023-02-16T22:24:16.927Z,20.83
2023-02-16T22:27:04.869Z,20.87
2023-02-16T22:29:52.806Z,20.10
2023-02-16T22:32:42.197Z,20.90
2023-02-16T22:35:30.016Z,20.47
2023-02-16T22:38:18.079Z,20.43
2023-02-16T22:41:06.939Z,18.67
2023-02-16T22:43:55.592Z,19.63
2023-02-16T22:46:43.713Z,19.97
2023-02-16T22:49:32.880Z,19.33
2023-02-16T22:52:20.831Z,19.87
2023-02-16T22:55:09.910Z,18.90
2023-02-16T22:57:57.772Z,18.47
2023-02-16T23:00:46.467Z,19.43
2023-02-16T23:03:34.350Z,19.30
2023-02-16T23:06:25.565Z,19.23
2023-02-16T23:09:16.060Z,19.57
2023-02-16T23:12:04.042Z,18.37
2023-02-16T23:14:51.993Z,18.87
2023-02-16T23:17:39.878Z,20.77
2023-02-16T23:20:27.782Z,18.43
2023-02-16T23:23:17.006Z,19.10
2023-02-16T23:26:07.208Z,17.83
2023-02-16T23:28:57.847Z,18.97
2023-02-16T23:31:47.696Z,18.60
2023-02-16T23:34:35.551Z,19.07
2023-02-16T23:37:23.399Z,19.40
2023-02-16T23:40:13.185Z,17.47
2023-02-16T23:43:01.214Z,18.23
2023-02-16T23:45:49.852Z,18.80
2023-02-16T23:48:38.168Z,18.03
2023-02-16T23:51:26.077Z,18.47
2023-02-16T23:54:13.953Z,18.70
2023-02-16T23:57:03.076Z,18.73
2023-02-16T23:59:50.928Z,17.87
